createdAt,value
2023-03-12T00:00:32.950Z,5.95
2023-03-12T00:03:16.551Z,8.65
2023-03-12T00:06:37.164Z,6.60
2023-03-12T00:09:12.212Z,6.43
2023-03-12T00:12:16.244Z,7.55
2023-03-12T00:15:07.414Z,6.93
2023-03-12T00:17:41.009Z,8.70
2023-03-12T00:20:38.292Z,9.50
2023-03-12T00:23:17.183Z,6.80
2023-03-12T00:27:25.990Z,5.68
2023-03-12T00:29:14.793Z,6.50
2023-03-12T00:31:51.565Z,12.00
2023-03-12T00:34:28.382Z,10.57
2023-03-12T00:37:22.400Z,12.13
2023-03-12T00:40:14.879Z,8.95
2023-03-12T00:43:07.444Z,16.33
2023-03-12T00:46:05.012Z,14.15
2023-03-12T00:48:49.504Z,9.55
2023-03-12T00:51:56.454Z,10.98
2023-03-12T00:54:59.365Z,13.65
2023-03-12T00:57:38.978Z,15.60
2023-03-12T01:00:13.447Z,13.65
2023-03-12T01:06:18.667Z,12.18
2023-03-12T01:09:40.611Z,12.48
2023-03-12T01:12:33.682Z,10.77
2023-03-12T01:15:21.727Z,9.57
2023-03-12T01:18:10.440Z,11.57
2023-03-12T01:21:03.344Z,10.23
2023-03-12T01:23:42.202Z,10.23
2023-03-12T01:26:17.345Z,13.07
2023-03-12T01:28:56.051Z,8.50
2023-03-12T01:31:44.868Z,10.88
2023-03-12T01:34:46.150Z,13.15
2023-03-12T01:37:43.501Z,11.02
2023-03-12T01:40:20.240Z,11.10
2023-03-12T01:43:22.474Z,14.48
2023-03-12T01:46:05.658Z,14.13
2023-03-12T01:49:16.240Z,11.68
2023-03-12T01:52:11.756Z,16.17
2023-03-12T01:56:00.599Z,13.68
2023-03-12T02:02:45.818Z,11.43
2023-03-12T02:06:35.024Z,11.45
2023-03-12T02:09:36.582Z,15.65
2023-03-12T02:12:17.853Z,12.75
2023-03-12T02:15:04.566Z,11.10
2023-03-12T02:20:52.709Z,13.82
2023-03-12T02:23:56.153Z,14.75
2023-03-12T02:29:39.059Z,10.98
2023-03-12T02:33:05.732Z,13.38
2023-03-12T02:35:44.049Z,19.48
2023-03-12T02:39:44.940Z,15.93
2023-03-12T02:42:52.593Z,11.13
2023-03-12T02:52:06.520Z,13.35
2023-03-12T02:59:27.489Z,18.23
2023-03-12T03:02:25.286Z,14.75
2023-03-12T03:05:10.701Z,13.50
2023-03-12T03:08:18.566Z,12.45
2023-03-12T03:11:33.573Z,10.82
2023-03-12T03:20:14.928Z,10.48
2023-03-12T03:26:24.347Z,12.20
2023-03-12T03:32:17.930Z,11.75
2023-03-12T03:34:53.648Z,10.88
2023-03-12T03:42:38.296Z,7.53
2023-03-12T03:47:24.648Z,10.10
2023-03-12T03:50:50.100Z,7.53
2023-03-12T03:54:38.998Z,14.75
2023-03-12T03:57:49.242Z,8.65
2023-03-12T04:01:08.086Z,10.95
2023-03-12T04:03:52.968Z,12.65
2023-03-12T04:07:00.893Z,8.35
2023-03-12T04:13:19.269Z,12.00
2023-03-12T04:16:36.817Z,9.93
2023-03-12T04:20:19.938Z,9.98
2023-03-12T04:23:00.560Z,11.95
2023-03-12T04:25:45.516Z,7.45
2023-03-12T04:32:49.658Z,16.23
2023-03-12T04:35:37.995Z,15.45
2023-03-12T04:38:22.396Z,8.85
2023-03-12T04:41:27.203Z,12.00
2023-03-12T04:44:12.263Z,11.00
2023-03-12T04:46:45.281Z,12.75
2023-03-12T04:49:29.355Z,11.48
2023-03-12T04:52:05.046Z,7.78
2023-03-12T04:54:50.321Z,7.20
2023-03-12T04:58:04.292Z,9.02
2023-03-12T05:00:52.105Z,8.15
2023-03-12T05:06:55.628Z,18.95
2023-03-12T05:09:35.582Z,12.88
2023-03-12T05:12:10.753Z,7.70
2023-03-12T05:15:32.841Z,7.60
2023-03-12T05:18:13.488Z,8.23
2023-03-12T05:23:44.776Z,12.00
2023-03-12T05:27:14.173Z,12.23
2023-03-12T05:29:56.674Z,9.57
2023-03-12T05:36:12.026Z,12.85
2023-03-12T05:38:47.489Z,9.82
2023-03-12T05:42:24.431Z,10.68
2023-03-12T05:48:32.002Z,10.13
2023-03-12T05:51:12.670Z,12.73
2023-03-12T05:54:23.152Z,9.43
2023-03-12T05:57:25.960Z,10.18
2023-03-12T06:00:30.922Z,12.75
2023-03-12T06:03:03.275Z,11.38
2023-03-12T06:05:58.101Z,9.63
2023-03-12T06:11:33.678Z,11.27
2023-03-12T06:14:29.602Z,10.15
2023-03-12T06:17:22.467Z,9.75
2023-03-12T06:20:22.793Z,10.82
2023-03-12T06:23:21.812Z,10.77
2023-03-12T06:26:13.572Z,8.27
2023-03-12T06:29:15.570Z,9.05
2023-03-12T06:31:54.560Z,18.80
2023-03-12T06:34:59.128Z,9.70
2023-03-12T06:37:33.807Z,12.32
2023-03-12T06:40:35.401Z,18.17
2023-03-12T06:43:25.962Z,8.75
2023-03-12T06:46:25.668Z,12.02
2023-03-12T06:49:27.825Z,15.05
2023-03-12T06:52:55.441Z,12.75
2023-03-12T06:55:36.833Z,11.55
2023-03-12T06:58:24.352Z,14.05
2023-03-12T07:01:14.169Z,15.13
2023-03-12T07:04:16.290Z,15.60
2023-03-12T07:07:01.515Z,11.50
2023-03-12T07:09:39.725Z,12.18
2023-03-12T07:12:25.967Z,18.70
2023-03-12T07:15:03.579Z,16.13
2023-03-12T07:17:32.634Z,9.75
2023-03-12T07:20:05.060Z,18.25
2023-03-12T07:22:45.585Z,17.02
2023-03-12T07:28:43.266Z,12.32
2023-03-12T07:31:17.097Z,10.75
2023-03-12T07:33:49.950Z,14.48
2023-03-12T07:36:18.157Z,12.80
2023-03-12T07:38:45.711Z,14.35
2023-03-12T07:41:19.186Z,14.40
2023-03-12T07:43:47.245Z,12.65
2023-03-12T07:46:25.589Z,12.35
2023-03-12T07:49:08.629Z,15.88
2023-03-12T07:51:41.736Z,12.88
2023-03-12T07:54:28.888Z,12.13
2023-03-12T07:56:56.724Z,15.27
2023-03-12T07:59:25.487Z,17.17
2023-03-12T08:01:53.060Z,14.25
2023-03-12T08:04:20.879Z,14.20
2023-03-12T08:06:59.863Z,9.43
2023-03-12T08:09:43.468Z,13.13
2023-03-12T08:12:22.665Z,16.70
2023-03-12T08:15:49.761Z,17.10
2023-03-12T08:18:11.862Z,12.45
2023-03-12T08:20:53.118Z,13.45
2023-03-12T08:23:28.746Z,14.32
2023-03-12T08:26:04.049Z,14.73
2023-03-12T08:29:09.218Z,15.70
2023-03-12T08:32:04.694Z,17.07
2023-03-12T08:34:35.102Z,17.80
2023-03-12T08:37:16.325Z,16.33
2023-03-12T08:40:09.160Z,12.98
2023-03-12T08:42:46.251Z,17.80
2023-03-12T08:45:43.804Z,14.30
2023-03-12T08:48:17.216Z,20.58
2023-03-12T08:51:08.323Z,20.10
2023-03-12T08:54:05.777Z,21.65
2023-03-12T08:56:45.015Z,16.52
2023-03-12T08:59:32.497Z,17.55
2023-03-12T09:02:11.531Z,18.05
2023-03-12T09:04:41.413Z,24.73
2023-03-12T09:07:21.459Z,20.98
2023-03-12T09:09:52.470Z,16.45
2023-03-12T09:12:49.495Z,16.25
2023-03-12T09:15:32.167Z,20.08
2023-03-12T09:18:24.965Z,21.23
2023-03-12T09:21:53.333Z,20.25
2023-03-12T09:24:01.899Z,21.10
2023-03-12T09:26:51.568Z,19.90
2023-03-12T09:29:32.719Z,18.60
2023-03-12T09:32:28.911Z,20.02
2023-03-12T09:34:59.386Z,24.85
2023-03-12T09:37:33.408Z,18.90
2023-03-12T09:40:20.672Z,18.23
2023-03-12T09:42:51.646Z,21.88
2023-03-12T09:45:34.350Z,23.17
2023-03-12T09:51:03.112Z,20.15
2023-03-12T09:53:59.335Z,23.90
2023-03-12T09:56:53.324Z,20.70
2023-03-12T09:59:34.327Z,20.17
2023-03-12T10:02:36.559Z,26.85
2023-03-12T10:05:24.462Z,19.73
2023-03-12T10:08:23.030Z,25.33
2023-03-12T10:11:12.225Z,23.00
2023-03-12T10:14:23.645Z,26.85
2023-03-12T10:19:42.367Z,23.00
2023-03-12T10:22:11.958Z,21.02
2023-03-12T10:25:05.438Z,23.77
2023-03-12T10:28:09.643Z,27.42
2023-03-12T10:31:03.508Z,24.35
2023-03-12T10:34:59.889Z,28.58
2023-03-12T10:38:15.349Z,26.75
2023-03-12T10:41:14.852Z,25.38
2023-03-12T10:43:54.742Z,29.10
2023-03-12T10:47:07.308Z,27.20
2023-03-12T10:50:12.940Z,32.60
2023-03-12T10:56:15.845Z,35.65
2023-03-12T10:58:54.245Z,28.83
2023-03-12T11:01:46.003Z,33.33
2023-03-12T11:04:45.491Z,36.97
2023-03-12T11:07:51.889Z,37.25
2023-03-12T11:11:02.515Z,37.22
2023-03-12T11:17:30.352Z,37.88
2023-03-12T11:20:37.370Z,38.00
2023-03-12T11:23:45.285Z,33.47
2023-03-12T11:26:19.307Z,42.38
2023-03-12T11:29:11.335Z,34.30
2023-03-12T11:31:54.101Z,36.55
2023-03-12T11:35:00.828Z,34.85
2023-03-12T11:38:08.043Z,39.17
2023-03-12T11:40:57.733Z,42.63
2023-03-12T11:43:44.410Z,42.45
2023-03-12T11:46:40.823Z,45.95
2023-03-12T11:49:16.140Z,39.35
2023-03-12T11:52:54.518Z,47.33
2023-03-12T11:59:37.786Z,60.90
2023-03-12T12:02:28.295Z,57.95
2023-03-12T12:05:25.716Z,65.45
2023-03-12T12:08:18.162Z,53.17
2023-03-12T12:15:09.864Z,59.20
2023-03-12T12:21:02.630Z,57.60
2023-03-12T12:24:34.140Z,57.35
2023-03-12T12:27:31.024Z,48.08
2023-03-12T12:30:32.868Z,46.53
2023-03-12T12:34:06.360Z,49.17
2023-03-12T12:37:18.630Z,50.20
2023-03-12T12:39:59.495Z,50.38
2023-03-12T12:42:47.879Z,57.42
2023-03-12T12:45:41.581Z,43.67
2023-03-12T12:48:51.409Z,46.83
2023-03-12T12:51:20.693Z,51.97
2023-03-12T12:54:12.453Z,44.42
2023-03-12T12:57:42.626Z,47.90
2023-03-12T13:00:23.881Z,36.22
2023-03-12T13:03:08.138Z,44.05
2023-03-12T13:08:49.211Z,43.85
2023-03-12T13:11:35.811Z,40.60
2023-03-12T13:14:15.581Z,30.02
2023-03-12T13:17:14.613Z,38.70
2023-03-12T13:23:21.687Z,42.25
2023-03-12T13:25:58.637Z,32.47
2023-03-12T13:29:11.353Z,56.53
2023-03-12T13:31:44.512Z,32.70
2023-03-12T13:34:18.687Z,33.38
2023-03-12T13:37:42.156Z,40.65
2023-03-12T13:40:32.614Z,42.20
2023-03-12T13:43:46.517Z,36.88
2023-03-12T13:46:19.074Z,39.22
2023-03-12T13:49:10.151Z,45.75
2023-03-12T13:51:50.860Z,37.33
2023-03-12T13:54:22.421Z,39.00
2023-03-12T13:56:58.297Z,42.05
2023-03-12T13:59:28.772Z,41.90
2023-03-12T14:02:00.420Z,41.88
2023-03-12T14:04:41.089Z,37.25
2023-03-12T14:07:20.156Z,43.70
2023-03-12T14:09:59.504Z,44.50
2023-03-12T14:12:29.709Z,40.42
2023-03-12T14:15:00.319Z,40.42
2023-03-12T14:17:29.680Z,36.95
2023-03-12T14:20:01.446Z,50.20
2023-03-12T14:22:33.707Z,52.47
2023-03-12T14:25:26.069Z,57.15
2023-03-12T14:27:55.744Z,33.30
2023-03-12T14:30:44.088Z,39.67
2023-03-12T14:33:15.922Z,42.58
2023-03-12T14:35:56.361Z,37.35
2023-03-12T14:38:38.596Z,48.70
2023-03-12T14:41:18.998Z,39.45
2023-03-12T14:43:53.349Z,35.53
2023-03-12T14:46:22.449Z,48.07
2023-03-12T14:48:51.285Z,54.95
2023-03-12T14:51:42.955Z,47.95
2023-03-12T14:54:21.534Z,49.97
2023-03-12T14:56:49.131Z,49.97
2023-03-12T14:59:22.855Z,68.47
2023-03-12T15:01:53.379Z,49.45
2023-03-12T15:04:22.467Z,42.22
2023-03-12T15:06:52.949Z,52.55
2023-03-12T15:09:26.029Z,48.70
2023-03-12T15:12:04.158Z,48.08
2023-03-12T15:14:34.934Z,48.17
2023-03-12T15:17:04.531Z,52.03
2023-03-12T15:19:33.680Z,59.95
2023-03-12T15:22:01.739Z,46.55
2023-03-12T15:24:31.289Z,44.53
2023-03-12T15:26:58.707Z,45.72
2023-03-12T15:29:28.940Z,56.00
2023-03-12T15:32:00.375Z,60.40
2023-03-12T15:34:28.464Z,55.85
2023-03-12T15:36:56.018Z,57.15
2023-03-12T15:39:29.525Z,70.50
2023-03-12T15:42:01.040Z,54.10
2023-03-12T15:44:37.861Z,49.47
2023-03-12T15:47:14.679Z,62.95
2023-03-12T15:49:44.918Z,53.67
2023-03-12T15:52:22.169Z,50.80
2023-03-12T15:55:09.132Z,47.83
2023-03-12T15:57:53.273Z,55.72
2023-03-12T16:00:31.303Z,61.83
2023-03-12T16:03:01.807Z,49.95
2023-03-12T16:05:40.110Z,53.53
2023-03-12T16:08:29.328Z,50.13
2023-03-12T16:10:56.945Z,62.85
2023-03-12T16:13:28.433Z,57.00
2023-03-12T16:15:55.936Z,64.43
2023-03-12T16:18:23.591Z,72.28
2023-03-12T16:20:53.493Z,64.72
2023-03-12T16:23:21.363Z,69.10
2023-03-12T16:25:50.987Z,58.72
2023-03-12T16:28:20.771Z,58.63
2023-03-12T16:30:48.579Z,66.90
2023-03-12T16:33:17.424Z,59.13
2023-03-12T16:35:45.079Z,54.55
2023-03-12T16:38:15.012Z,56.42
2023-03-12T16:40:48.029Z,51.38
2023-03-12T16:45:44.560Z,62.60
2023-03-12T16:48:14.838Z,59.55
2023-03-12T16:50:46.404Z,61.45
2023-03-12T16:53:13.839Z,61.30
2023-03-12T16:56:01.257Z,60.03
2023-03-12T16:58:29.547Z,65.15
2023-03-12T17:00:57.813Z,64.78
2023-03-12T17:03:28.653Z,64.88
2023-03-12T17:05:56.547Z,57.03
2023-03-12T17:08:24.255Z,63.83
2023-03-12T17:10:52.381Z,53.30
2023-03-12T17:13:24.504Z,63.20
2023-03-12T17:15:52.831Z,65.10
2023-03-12T17:18:20.666Z,64.32
2023-03-12T17:20:49.257Z,60.50
2023-03-12T17:23:16.694Z,57.15
2023-03-12T17:25:44.638Z,61.33
2023-03-12T17:28:13.636Z,62.22
2023-03-12T17:30:41.120Z,54.35
2023-03-12T17:33:10.647Z,51.88
2023-03-12T17:35:38.414Z,53.88
2023-03-12T17:38:05.906Z,65.10
2023-03-12T17:40:33.874Z,51.72
2023-03-12T17:43:01.392Z,60.20
2023-03-12T17:45:28.876Z,48.60
2023-03-12T17:47:56.321Z,66.43
2023-03-12T17:50:23.759Z,53.05
2023-03-12T17:52:51.791Z,58.00
2023-03-12T17:55:19.340Z,47.33
2023-03-12T17:57:46.780Z,57.38
2023-03-12T18:00:14.475Z,47.35
2023-03-12T18:02:42.639Z,54.05
2023-03-12T18:05:11.578Z,56.13
2023-03-12T18:07:39.547Z,59.58
2023-03-12T18:10:08.006Z,50.65
2023-03-12T18:12:38.033Z,43.72
2023-03-12T18:15:06.185Z,50.63
2023-03-12T18:17:33.882Z,62.97
2023-03-12T18:20:01.415Z,51.97
2023-03-12T18:22:28.903Z,42.50
2023-03-12T18:24:56.377Z,55.85
2023-03-12T18:27:25.066Z,55.85
2023-03-12T18:29:52.540Z,56.95
2023-03-12T18:32:20.056Z,57.72
2023-03-12T18:34:48.092Z,51.42
2023-03-12T18:37:15.817Z,59.50
2023-03-12T18:39:43.281Z,52.50
2023-03-12T18:42:10.740Z,57.65
2023-03-12T18:44:38.203Z,56.90
2023-03-12T18:47:05.704Z,48.85
2023-03-12T18:49:33.325Z,49.38
2023-03-12T18:52:00.776Z,58.60
2023-03-12T18:54:28.231Z,48.92
2023-03-12T18:56:55.699Z,56.15
2023-03-12T18:59:23.379Z,51.67
2023-03-12T19:01:51.000Z,49.75
2023-03-12T19:04:19.776Z,58.60
2023-03-12T19:06:51.531Z,50.25
2023-03-12T19:09:22.859Z,50.75
2023-03-12T19:11:50.372Z,54.95
2023-03-12T19:14:17.868Z,44.53
2023-03-12T19:16:45.299Z,47.70
2023-03-12T19:19:14.983Z,61.88
2023-03-12T19:21:42.434Z,47.05
2023-03-12T19:24:09.950Z,56.33
2023-03-12T19:26:37.420Z,44.22
2023-03-12T19:29:04.889Z,57.40
2023-03-12T19:31:34.337Z,67.68
2023-03-12T19:34:01.912Z,51.30
2023-03-12T19:36:29.484Z,73.75
2023-03-12T19:38:56.949Z,71.82
2023-03-12T19:41:24.453Z,69.07
2023-03-12T19:43:51.967Z,67.28
2023-03-12T19:46:19.441Z,64.13
2023-03-12T19:48:47.068Z,58.95
2023-03-12T19:51:14.572Z,51.85
2023-03-12T19:53:46.164Z,61.00
2023-03-12T19:56:14.064Z,63.78
2023-03-12T19:58:41.633Z,70.68
2023-03-12T20:01:09.401Z,72.13
2023-03-12T20:03:43.151Z,64.57
2023-03-12T20:06:15.571Z,75.18
2023-03-12T20:08:44.497Z,68.63
2023-03-12T20:11:12.155Z,73.28
2023-03-12T20:13:40.007Z,73.57
2023-03-12T20:16:07.932Z,71.57
2023-03-12T20:18:35.459Z,68.25
2023-03-12T20:21:05.636Z,75.32
2023-03-12T20:23:33.262Z,70.13
2023-03-12T20:26:00.788Z,79.72
2023-03-12T20:28:28.317Z,71.90
2023-03-12T20:30:55.774Z,73.60
2023-03-12T20:33:25.541Z,65.97
2023-03-12T20:35:53.142Z,74.65
2023-03-12T20:38:20.574Z,58.33
2023-03-12T20:40:48.113Z,60.55
2023-03-12T20:43:17.626Z,68.97
2023-03-12T20:45:48.509Z,57.88
2023-03-12T20:48:16.006Z,69.00
2023-03-12T20:50:43.429Z,62.83
2023-03-12T20:53:10.922Z,57.67
2023-03-12T20:55:39.148Z,56.10
2023-03-12T20:58:06.977Z,68.50
2023-03-12T21:00:34.495Z,49.30
2023-03-12T21:03:01.973Z,51.15
2023-03-12T21:05:29.448Z,49.60
2023-03-12T21:07:58.211Z,52.95
2023-03-12T21:10:27.188Z,50.20
2023-03-12T21:12:59.176Z,47.83
2023-03-12T21:15:27.081Z,45.97
2023-03-12T21:17:55.162Z,48.08
2023-03-12T21:20:23.625Z,43.85
2023-03-12T21:22:52.562Z,41.20
2023-03-12T21:25:20.094Z,43.45
2023-03-12T21:27:51.690Z,44.67
2023-03-12T21:30:20.010Z,38.67
2023-03-12T21:32:47.518Z,45.75
2023-03-12T21:35:15.078Z,34.30
2023-03-12T21:37:42.593Z,33.75
2023-03-12T21:40:12.756Z,45.17
2023-03-12T21:42:42.558Z,43.13
2023-03-12T21:45:10.538Z,46.80
2023-03-12T21:47:38.520Z,34.25
2023-03-12T21:50:06.250Z,37.67
2023-03-12T21:52:41.273Z,37.60
2023-03-12T21:55:10.955Z,42.92
2023-03-12T21:57:38.423Z,36.67
2023-03-12T22:00:06.176Z,43.85
2023-03-12T22:02:33.661Z,37.10
2023-03-12T22:05:02.422Z,40.58
2023-03-12T22:07:37.558Z,47.08
2023-03-12T22:10:05.744Z,47.25
2023-03-12T22:12:35.380Z,42.15
2023-03-12T22:15:02.912Z,29.88
2023-03-12T22:17:32.731Z,35.97
2023-03-12T22:20:02.917Z,29.85
2023-03-12T22:22:30.330Z,30.52
2023-03-12T22:24:59.987Z,42.65
2023-03-12T22:27:27.572Z,44.28
2023-03-12T22:29:57.395Z,38.22
2023-03-12T22:32:27.556Z,37.45
2023-03-12T22:34:55.166Z,37.58
2023-03-12T22:37:22.670Z,34.80
2023-03-12T22:39:52.977Z,31.50
2023-03-12T22:42:22.762Z,36.33
2023-03-12T22:44:50.248Z,35.08
2023-03-12T22:47:20.077Z,43.78
2023-03-12T22:49:49.171Z,30.08
2023-03-12T22:52:16.992Z,38.63
2023-03-12T22:54:44.469Z,41.97
2023-03-12T22:57:12.367Z,43.08
2023-03-12T22:59:39.787Z,43.10
2023-03-12T23:02:07.271Z,42.28
2023-03-12T23:04:36.665Z,49.92
2023-03-12T23:07:13.686Z,43.03
2023-03-12T23:09:44.116Z,41.65
2023-03-12T23:12:13.776Z,49.50
2023-03-12T23:14:41.296Z,36.35
2023-03-12T23:17:10.972Z,41.70
2023-03-12T23:19:38.451Z,42.47
2023-03-12T23:22:05.918Z,38.00
2023-03-12T23:24:34.754Z,47.47
2023-03-12T23:27:02.466Z,40.83
2023-03-12T23:29:30.884Z,46.33
2023-03-12T23:31:58.550Z,46.55
2023-03-12T23:34:28.614Z,38.38
2023-03-12T23:37:07.973Z,40.80
2023-03-12T23:40:06.496Z,43.90
2023-03-12T23:43:26.152Z,40.78
2023-03-12T23:48:11.334Z,46.35
2023-03-12T23:50:47.354Z,45.15
2023-03-12T23:53:20.712Z,45.92
2023-03-12T23:56:02.453Z,41.28
2023-03-12T23:58:32.088Z,58.70
